createdAt,value
2018-03-28T00:00:55.585Z,9.97
2018-03-28T00:02:38.785Z,11.20
2018-03-28T00:04:21.946Z,13.13
2018-03-28T00:06:05.849Z,11.93
2018-03-28T00:07:48.981Z,10.77
2018-03-28T00:09:32.109Z,10.30
2018-03-28T00:11:15.291Z,15.10
2018-03-28T00:12:58.404Z,10.67
2018-03-28T00:14:41.535Z,20.10
2018-03-28T00:16:24.665Z,152.37
2018-03-28T00:18:07.792Z,13.63
2018-03-28T00:19:51.692Z,11.10
2018-03-28T00:21:34.848Z,11.57
2018-03-28T00:23:18.740Z,11.30
2018-03-28T00:25:01.858Z,13.90
2018-03-28T00:26:44.975Z,9.80
2018-03-28T00:28:28.120Z,79.87
2018-03-28T00:30:11.251Z,12.13
2018-03-28T00:31:55.147Z,13.47
2018-03-28T00:33:38.270Z,11.17
2018-03-28T00:35:21.367Z,12.87
2018-03-28T00:37:04.502Z,11.30
2018-03-28T00:38:48.557Z,12.30
2018-03-28T00:40:31.691Z,13.80
2018-03-28T00:42:15.591Z,79.90
2018-03-28T00:43:58.719Z,17.83
2018-03-28T00:45:42.645Z,13.67
2018-03-28T00:47:25.796Z,11.53
2018-03-28T00:49:09.672Z,18.93
2018-03-28T00:50:52.795Z,16.03
2018-03-28T00:52:35.944Z,12.93
2018-03-28T00:54:19.833Z,13.70
2018-03-28T00:56:02.990Z,12.67
2018-03-28T00:57:46.132Z,15.53
2018-03-28T00:59:30.013Z,16.67
2018-03-28T01:01:13.147Z,14.23
2018-03-28T01:02:56.282Z,47.27
2018-03-28T01:04:39.506Z,13.67
2018-03-28T01:06:23.396Z,13.67
2018-03-28T01:08:06.554Z,16.13
2018-03-28T01:09:50.494Z,54.63
2018-03-28T01:11:34.388Z,10.83
2018-03-28T01:13:17.508Z,12.70
2018-03-28T01:15:00.641Z,19.50
2018-03-28T01:16:43.781Z,16.00
2018-03-28T01:18:27.711Z,17.33
2018-03-28T01:20:11.622Z,13.70
2018-03-28T01:21:54.736Z,11.63
2018-03-28T01:23:37.995Z,13.37
2018-03-28T01:25:21.255Z,16.20
2018-03-28T01:27:04.375Z,15.63
2018-03-28T01:28:47.511Z,28.40
2018-03-28T01:30:30.628Z,30.00
2018-03-28T01:32:14.058Z,15.80
2018-03-28T01:33:57.202Z,16.70
2018-03-28T01:35:41.076Z,18.00
2018-03-28T01:37:24.298Z,16.03
2018-03-28T01:39:09.291Z,14.20
2018-03-28T01:40:52.559Z,16.30
2018-03-28T01:42:37.408Z,13.37
2018-03-28T01:44:23.417Z,15.13
2018-03-28T01:46:08.559Z,15.30
2018-03-28T01:47:51.834Z,16.33
2018-03-28T01:49:35.227Z,103.50
2018-03-28T01:51:19.080Z,18.43
2018-03-28T01:53:02.256Z,163.67
2018-03-28T01:54:45.400Z,16.33
2018-03-28T01:56:29.415Z,15.40
2018-03-28T01:58:12.692Z,16.80
2018-03-28T01:59:56.633Z,17.17
2018-03-28T02:01:40.584Z,19.80
2018-03-28T02:03:23.719Z,16.50
2018-03-28T02:05:07.557Z,18.97
2018-03-28T02:06:50.771Z,19.90
2018-03-28T02:08:34.636Z,19.27
2018-03-28T02:10:17.766Z,19.40
2018-03-28T02:12:00.917Z,18.77
2018-03-28T02:13:44.806Z,19.80
2018-03-28T02:15:28.027Z,19.10
2018-03-28T02:17:11.143Z,15.90
2018-03-28T02:18:54.239Z,17.67
2018-03-28T02:20:37.385Z,22.93
2018-03-28T02:22:20.501Z,20.30
2018-03-28T02:24:03.616Z,22.20
2018-03-28T02:25:46.765Z,17.07
2018-03-28T02:27:29.909Z,22.23
2018-03-28T02:29:13.036Z,19.37
2018-03-28T02:30:56.184Z,24.00
2018-03-28T02:32:39.415Z,24.70
2018-03-28T02:34:22.637Z,35.03
2018-03-28T02:36:06.563Z,35.03
2018-03-28T02:37:49.700Z,25.60
2018-03-28T02:39:33.590Z,22.97
2018-03-28T02:41:16.752Z,25.20
2018-03-28T02:43:00.780Z,22.70
2018-03-28T02:44:44.664Z,23.60
2018-03-28T02:46:27.804Z,26.70
2018-03-28T02:48:10.924Z,53.93
2018-03-28T02:49:54.061Z,24.67
2018-03-28T02:51:38.180Z,23.97
2018-03-28T02:53:21.395Z,75.60
2018-03-28T02:55:04.746Z,26.60
2018-03-28T02:56:48.010Z,23.67
2018-03-28T02:58:31.185Z,26.17
2018-03-28T03:00:15.087Z,49.70
2018-03-28T03:01:58.524Z,39.60
2018-03-28T03:03:41.648Z,26.87
2018-03-28T03:05:24.793Z,30.07
2018-03-28T03:07:07.972Z,25.37
2018-03-28T03:08:51.121Z,28.17
2018-03-28T03:10:35.010Z,69.73
2018-03-28T03:12:18.150Z,34.13
2018-03-28T03:14:01.362Z,30.77
2018-03-28T03:15:44.483Z,79.07
2018-03-28T03:17:27.638Z,32.73
2018-03-28T03:19:10.756Z,60.77
2018-03-28T03:20:53.962Z,29.97
2018-03-28T03:22:37.869Z,26.50
2018-03-28T03:24:21.051Z,31.03
2018-03-28T03:26:04.193Z,32.00
2018-03-28T03:27:47.352Z,30.83
2018-03-28T03:29:31.279Z,37.97
2018-03-28T03:31:14.540Z,28.63
2018-03-28T03:32:57.812Z,35.90
2018-03-28T03:34:41.717Z,30.63
2018-03-28T03:36:25.603Z,32.87
2018-03-28T03:38:08.769Z,34.73
2018-03-28T03:39:52.017Z,33.10
2018-03-28T03:41:35.925Z,36.00
2018-03-28T03:43:19.169Z,31.67
2018-03-28T03:45:03.043Z,34.23
2018-03-28T03:46:46.160Z,35.33
2018-03-28T03:48:29.334Z,42.27
2018-03-28T03:50:13.255Z,39.07
2018-03-28T03:51:56.396Z,40.80
2018-03-28T03:53:40.296Z,39.33
2018-03-28T03:55:23.406Z,34.53
2018-03-28T03:57:06.577Z,38.87
2018-03-28T03:58:49.714Z,52.60
2018-03-28T04:00:32.868Z,36.93
2018-03-28T04:02:16.089Z,41.17
2018-03-28T04:03:59.238Z,55.50
2018-03-28T04:05:43.140Z,44.70
2018-03-28T04:07:27.787Z,67.03
2018-03-28T04:09:11.032Z,45.37
2018-03-28T04:10:54.945Z,37.23
2018-03-28T04:12:38.061Z,37.17
2018-03-28T04:14:21.215Z,36.83
2018-03-28T04:16:05.188Z,38.27
2018-03-28T04:17:48.305Z,39.67
2018-03-28T04:19:31.549Z,38.90
2018-03-28T04:21:14.673Z,43.53
2018-03-28T04:22:57.895Z,52.87
2018-03-28T04:24:43.973Z,38.53
2018-03-28T04:26:27.307Z,40.57
2018-03-28T04:28:11.211Z,37.93
2018-03-28T04:29:54.342Z,38.70
2018-03-28T04:31:38.740Z,76.80
2018-03-28T04:33:21.857Z,48.50
2018-03-28T04:35:05.007Z,64.37
2018-03-28T04:36:48.124Z,40.70
2018-03-28T04:38:31.257Z,91.80
2018-03-28T04:40:14.498Z,68.73
2018-03-28T04:41:58.379Z,74.10
2018-03-28T04:43:41.549Z,51.60
2018-03-28T04:45:24.953Z,45.97
2018-03-28T04:47:09.611Z,39.40
2018-03-28T04:48:53.025Z,58.13
2018-03-28T04:50:36.954Z,49.33
2018-03-28T04:52:20.372Z,45.47
2018-03-28T04:54:04.330Z,39.30
2018-03-28T04:55:47.607Z,40.70
2018-03-28T04:57:31.444Z,47.67
2018-03-28T04:59:14.563Z,43.07
2018-03-28T05:00:57.721Z,44.90
2018-03-28T05:02:40.933Z,41.60
2018-03-28T05:04:24.067Z,44.73
2018-03-28T05:06:07.967Z,41.80
2018-03-28T05:07:51.098Z,42.03
2018-03-28T05:09:34.332Z,72.53
2018-03-28T05:11:17.681Z,46.50
2018-03-28T05:13:00.977Z,46.90
2018-03-28T05:14:45.426Z,73.00
2018-03-28T05:16:29.448Z,50.40
2018-03-28T05:18:12.678Z,60.67
2018-03-28T05:19:55.818Z,52.10
2018-03-28T05:21:38.952Z,66.93
2018-03-28T05:23:22.102Z,47.30
2018-03-28T05:25:05.339Z,47.13
2018-03-28T05:26:48.497Z,49.63
2018-03-28T05:28:31.680Z,46.87
2018-03-28T05:30:14.801Z,123.07
2018-03-28T05:31:58.712Z,60.13
2018-03-28T05:33:41.824Z,53.53
2018-03-28T05:35:25.051Z,52.50
2018-03-28T05:37:08.496Z,52.70
2018-03-28T05:38:52.402Z,50.20
2018-03-28T05:40:35.517Z,54.73
2018-03-28T05:42:18.744Z,54.30
2018-03-28T05:44:01.858Z,67.70
2018-03-28T05:45:44.972Z,57.47
2018-03-28T05:47:28.207Z,53.43
2018-03-28T05:49:12.093Z,55.93
2018-03-28T05:50:55.270Z,90.73
2018-03-28T05:52:39.175Z,62.47
2018-03-28T05:54:22.380Z,56.47
2018-03-28T05:56:05.533Z,61.03
2018-03-28T05:57:48.744Z,56.03
2018-03-28T05:59:31.874Z,69.90
2018-03-28T06:01:15.756Z,79.53
2018-03-28T06:02:58.913Z,62.83
2018-03-28T06:04:42.131Z,137.80
2018-03-28T06:06:25.254Z,62.73
2018-03-28T06:08:08.472Z,63.43
2018-03-28T06:09:51.607Z,63.13
2018-03-28T06:11:35.485Z,65.67
2018-03-28T06:13:18.644Z,72.47
2018-03-28T06:15:02.540Z,67.10
2018-03-28T06:16:45.799Z,77.10
2018-03-28T06:18:29.723Z,84.33
2018-03-28T06:20:12.954Z,76.40
2018-03-28T06:21:56.084Z,79.13
2018-03-28T06:23:39.999Z,82.43
2018-03-28T06:25:23.118Z,74.10
2018-03-28T06:27:07.021Z,86.10
2018-03-28T06:28:50.245Z,126.30
2018-03-28T06:30:33.369Z,77.97
2018-03-28T06:32:16.500Z,92.23
2018-03-28T06:33:59.679Z,120.63
2018-03-28T06:35:42.822Z,91.57
2018-03-28T06:37:25.942Z,88.87
2018-03-28T06:39:09.369Z,94.43
2018-03-28T06:40:53.265Z,87.57
2018-03-28T06:42:36.393Z,105.37
2018-03-28T06:44:19.626Z,122.40
2018-03-28T06:46:03.532Z,135.57
2018-03-28T06:47:46.665Z,91.80
2018-03-28T06:49:29.847Z,95.90
2018-03-28T06:51:12.969Z,96.13
2018-03-28T06:52:56.094Z,154.13
2018-03-28T06:54:39.617Z,103.37
2018-03-28T06:56:22.782Z,115.40
2018-03-28T06:58:05.905Z,96.10
2018-03-28T06:59:49.061Z,111.07
2018-03-28T07:01:32.185Z,107.63
2018-03-28T07:03:15.352Z,107.20
2018-03-28T07:04:58.578Z,96.90
2018-03-28T07:06:42.619Z,100.17
2018-03-28T07:08:26.520Z,90.53
2018-03-28T07:10:09.773Z,93.47
2018-03-28T07:11:53.656Z,108.53
2018-03-28T07:13:36.838Z,111.43
2018-03-28T07:15:20.756Z,165.40
2018-03-28T07:17:04.654Z,105.37
2018-03-28T07:18:47.763Z,106.27
2018-03-28T07:20:31.004Z,116.70
2018-03-28T07:22:14.253Z,136.10
2018-03-28T07:23:57.458Z,105.57
2018-03-28T07:25:40.636Z,109.17
2018-03-28T07:27:23.761Z,106.60
2018-03-28T07:29:06.895Z,169.23
2018-03-28T07:30:50.052Z,123.53
2018-03-28T07:32:33.236Z,130.33
2018-03-28T07:34:16.412Z,160.60
2018-03-28T07:35:59.582Z,188.30
2018-03-28T07:37:42.806Z,150.47
2018-03-28T07:39:26.701Z,145.90
2018-03-28T07:41:09.956Z,150.70
2018-03-28T07:42:53.176Z,138.23
2018-03-28T07:44:36.399Z,130.03
2018-03-28T07:46:20.328Z,126.03
2018-03-28T07:48:03.616Z,133.87
2018-03-28T07:49:46.730Z,272.57
2018-03-28T07:51:30.074Z,138.37
2018-03-28T07:53:13.309Z,146.47
2018-03-28T07:54:56.427Z,135.77
2018-03-28T07:56:39.568Z,148.00
2018-03-28T07:58:22.756Z,141.57
2018-03-28T08:00:05.987Z,148.17
2018-03-28T08:01:49.911Z,183.73
2018-03-28T08:03:33.032Z,167.77
2018-03-28T08:05:16.934Z,157.40
2018-03-28T08:07:00.093Z,148.70
2018-03-28T08:08:43.302Z,153.83
2018-03-28T08:10:27.240Z,262.17
2018-03-28T08:12:11.153Z,228.23
2018-03-28T08:13:54.292Z,158.50
2018-03-28T08:15:38.214Z,155.03
2018-03-28T08:17:21.357Z,162.00
2018-03-28T08:19:05.275Z,162.77
2018-03-28T08:20:48.594Z,142.63
2018-03-28T08:22:32.537Z,189.27
2018-03-28T08:24:15.682Z,138.03
2018-03-28T08:25:58.817Z,145.90
2018-03-28T08:27:41.950Z,179.33
2018-03-28T08:29:25.098Z,164.30
2018-03-28T08:31:08.247Z,143.23
2018-03-28T08:32:51.501Z,149.17
2018-03-28T08:34:34.653Z,156.67
2018-03-28T08:36:18.593Z,171.97
2018-03-28T08:38:02.516Z,160.20
2018-03-28T08:39:45.653Z,185.03
2018-03-28T08:41:29.539Z,152.67
2018-03-28T08:43:12.704Z,154.30
2018-03-28T08:44:56.623Z,158.00
2018-03-28T08:46:39.730Z,139.17
2018-03-28T08:48:22.898Z,166.30
2018-03-28T08:50:06.104Z,181.30
2018-03-28T08:51:49.239Z,144.17
2018-03-28T08:53:32.417Z,159.47
2018-03-28T08:55:16.333Z,138.90
2018-03-28T08:56:59.456Z,162.23
2018-03-28T08:58:42.608Z,144.67
2018-03-28T09:00:25.767Z,263.13
2018-03-28T09:02:08.908Z,160.53
2018-03-28T09:03:52.089Z,155.10
2018-03-28T09:05:35.275Z,152.23
2018-03-28T09:07:18.405Z,205.53
2018-03-28T09:09:01.881Z,137.10
2018-03-28T09:10:45.121Z,144.07
2018-03-28T09:12:29.035Z,135.87
2018-03-28T09:14:12.193Z,161.53
2018-03-28T09:15:55.323Z,127.20
2018-03-28T09:17:38.449Z,135.90
2018-03-28T09:19:21.603Z,238.13
2018-03-28T09:21:04.714Z,129.87
2018-03-28T09:22:47.831Z,175.07
2018-03-28T09:24:31.741Z,178.57
2018-03-28T09:26:14.865Z,155.17
2018-03-28T09:27:58.026Z,213.60
2018-03-28T09:29:41.937Z,154.33
2018-03-28T09:31:25.199Z,154.67
2018-03-28T09:33:08.387Z,140.30
2018-03-28T09:34:51.611Z,134.03
2018-03-28T09:36:35.550Z,152.37
2018-03-28T09:38:19.464Z,125.57
2018-03-28T09:40:02.628Z,123.60
2018-03-28T09:41:45.795Z,137.00
2018-03-28T09:43:28.936Z,127.70
2018-03-28T09:45:12.852Z,148.93
2018-03-28T09:46:55.997Z,125.50
2018-03-28T09:48:39.871Z,143.30
2018-03-28T09:50:23.011Z,137.33
2018-03-28T09:52:07.758Z,138.10
2018-03-28T09:53:51.796Z,145.77
2018-03-28T09:55:34.944Z,154.37
2018-03-28T09:57:18.892Z,166.67
2018-03-28T09:59:02.008Z,123.70
2018-03-28T10:00:46.244Z,161.30
2018-03-28T10:02:31.108Z,181.07
2018-03-28T10:04:22.947Z,176.80
2018-03-28T10:06:06.120Z,177.37
2018-03-28T10:07:49.230Z,193.33
2018-03-28T10:09:32.349Z,183.37
2018-03-28T10:11:15.491Z,173.13
2018-03-28T10:12:59.390Z,170.50
2018-03-28T10:14:42.523Z,169.50
2018-03-28T10:16:26.432Z,195.10
2018-03-28T10:18:09.665Z,176.17
2018-03-28T10:19:53.501Z,171.73
2018-03-28T10:21:36.648Z,161.50
2018-03-28T10:23:20.524Z,177.00
2018-03-28T10:25:03.655Z,149.80
2018-03-28T10:26:46.800Z,144.77
2018-03-28T10:28:29.926Z,149.60
2018-03-28T10:30:13.814Z,144.30
2018-03-28T10:31:56.941Z,182.97
2018-03-28T10:33:40.078Z,193.07
2018-03-28T10:35:23.982Z,162.43
2018-03-28T10:37:07.211Z,146.40
2018-03-28T10:38:50.353Z,153.20
2018-03-28T10:40:33.477Z,165.87
2018-03-28T10:42:17.384Z,174.63
2018-03-28T10:44:00.505Z,176.03
2018-03-28T10:45:43.628Z,204.90
2018-03-28T10:47:26.853Z,214.80
2018-03-28T10:49:09.979Z,172.03
2018-03-28T10:50:53.953Z,164.27
2018-03-28T10:52:37.131Z,253.70
2018-03-28T10:54:21.060Z,167.80
2018-03-28T10:56:04.283Z,137.23
2018-03-28T10:57:47.457Z,232.13
2018-03-28T10:59:30.588Z,166.27
2018-03-28T11:01:13.704Z,174.30
2018-03-28T11:02:56.932Z,155.53
2018-03-28T11:04:41.069Z,200.27
2018-03-28T11:06:24.948Z,177.23
2018-03-28T11:08:08.100Z,188.73
2018-03-28T11:09:51.262Z,162.50
2018-03-28T11:11:34.397Z,174.23
2018-03-28T11:13:18.308Z,183.40
2018-03-28T11:15:01.451Z,151.23
2018-03-28T11:16:45.373Z,159.97
2018-03-28T11:18:29.286Z,182.20
2018-03-28T11:20:12.399Z,150.13
2018-03-28T11:21:55.522Z,150.77
2018-03-28T11:23:38.653Z,164.07
2018-03-28T11:25:21.763Z,166.77
2018-03-28T11:27:04.889Z,147.90
2018-03-28T11:28:48.809Z,184.03
2018-03-28T11:30:31.937Z,136.93
2018-03-28T11:32:15.839Z,194.77
2018-03-28T11:33:58.983Z,151.57
2018-03-28T11:35:42.104Z,175.43
2018-03-28T11:37:26.186Z,119.83
2018-03-28T11:39:09.312Z,132.33
2018-03-28T11:40:52.435Z,116.30
2018-03-28T11:42:35.564Z,139.23
2018-03-28T11:44:18.718Z,393.50
2018-03-28T11:46:02.606Z,118.27
2018-03-28T11:47:45.739Z,96.93
2018-03-28T11:49:28.885Z,121.73
2018-03-28T11:51:12.789Z,101.47
2018-03-28T11:52:56.062Z,157.90
2018-03-28T11:54:39.960Z,122.17
2018-03-28T11:56:23.117Z,175.40
2018-03-28T11:58:06.256Z,103.40
2018-03-28T11:59:49.511Z,158.23
2018-03-28T12:01:32.711Z,102.00
2018-03-28T12:03:15.946Z,108.13
2018-03-28T12:04:59.368Z,89.40
2018-03-28T12:06:42.589Z,242.50
2018-03-28T12:08:25.714Z,95.77
2018-03-28T12:10:08.945Z,85.70
2018-03-28T12:11:52.139Z,324.27
2018-03-28T12:13:35.363Z,111.50
2018-03-28T12:15:18.508Z,92.33
2018-03-28T12:17:01.636Z,221.93
2018-03-28T12:18:44.745Z,106.07
2018-03-28T12:20:27.891Z,85.70
2018-03-28T12:22:11.007Z,90.47
2018-03-28T12:23:54.316Z,86.10
2018-03-28T12:25:37.451Z,81.47
2018-03-28T12:27:20.604Z,94.70
2018-03-28T12:29:03.741Z,101.43
2018-03-28T12:30:47.650Z,138.13
2018-03-28T12:32:30.788Z,88.67
2018-03-28T12:34:14.685Z,84.03
2018-03-28T12:35:57.842Z,90.43
2018-03-28T12:37:41.720Z,87.30
2018-03-28T12:39:24.923Z,106.80
2018-03-28T12:41:08.074Z,203.70
2018-03-28T12:42:51.234Z,77.87
2018-03-28T12:44:34.331Z,73.50
2018-03-28T12:46:18.556Z,81.43
2018-03-28T12:48:01.675Z,87.03
2018-03-28T12:49:44.822Z,73.20
2018-03-28T12:51:28.724Z,162.17
2018-03-28T12:53:11.841Z,67.57
2018-03-28T12:54:55.673Z,105.80
2018-03-28T12:56:38.894Z,84.13
2018-03-28T12:58:22.121Z,110.40
2018-03-28T13:00:05.234Z,83.10
2018-03-28T13:01:48.424Z,92.87
2018-03-28T13:03:31.556Z,70.23
2018-03-28T13:05:14.844Z,87.27
2018-03-28T13:06:58.723Z,71.27
2018-03-28T13:08:41.942Z,80.63
2018-03-28T13:10:25.058Z,75.57
2018-03-28T13:12:08.288Z,79.30
2018-03-28T13:13:51.464Z,75.23
2018-03-28T13:15:34.621Z,82.73
2018-03-28T13:17:18.577Z,78.47
2018-03-28T13:19:01.775Z,80.33
2018-03-28T13:20:44.879Z,135.53
2018-03-28T13:22:28.044Z,95.00
2018-03-28T13:24:11.169Z,86.13
2018-03-28T13:25:54.316Z,88.83
2018-03-28T13:27:37.460Z,71.47
2018-03-28T13:29:21.376Z,76.23
2018-03-28T13:31:04.512Z,74.70
2018-03-28T13:32:48.409Z,91.67
2018-03-28T13:34:31.523Z,86.67
2018-03-28T13:36:14.680Z,76.97
2018-03-28T13:37:57.791Z,103.77
2018-03-28T13:39:41.748Z,74.50
2018-03-28T13:41:25.109Z,69.37
2018-03-28T13:43:08.340Z,71.07
2018-03-28T13:44:51.563Z,61.97
2018-03-28T13:46:34.685Z,64.57
2018-03-28T13:48:17.804Z,60.33
2018-03-28T13:50:00.913Z,62.10
2018-03-28T13:51:44.069Z,66.30
2018-03-28T13:53:27.962Z,67.17
2018-03-28T13:55:12.591Z,60.10
2018-03-28T13:56:56.664Z,57.83
2018-03-28T13:58:39.815Z,72.30
2018-03-28T14:00:22.938Z,67.83
2018-03-28T14:02:06.130Z,63.70
2018-03-28T14:03:50.043Z,65.17
2018-03-28T14:05:33.161Z,66.80
2018-03-28T14:07:16.394Z,61.77
2018-03-28T14:08:59.614Z,61.43
2018-03-28T14:10:42.730Z,57.97
2018-03-28T14:12:25.949Z,55.23
2018-03-28T14:14:09.103Z,63.13
2018-03-28T14:15:52.285Z,66.57
2018-03-28T14:17:35.408Z,65.80
2018-03-28T14:19:19.622Z,57.60
2018-03-28T14:21:02.733Z,77.47
2018-03-28T14:22:45.859Z,69.67
2018-03-28T14:24:28.995Z,50.60
2018-03-28T14:26:13.134Z,60.20
2018-03-28T14:27:56.256Z,59.20
2018-03-28T14:29:40.290Z,59.00
2018-03-28T14:31:24.180Z,59.80
2018-03-28T14:33:07.315Z,59.93
2018-03-28T14:34:50.536Z,56.50
2018-03-28T14:36:33.756Z,64.83
2018-03-28T14:38:18.312Z,52.53
2018-03-28T14:40:02.871Z,59.97
2018-03-28T14:41:46.787Z,62.97
2018-03-28T14:43:29.924Z,51.40
2018-03-28T14:45:13.193Z,51.80
2018-03-28T14:46:57.153Z,60.23
2018-03-28T14:48:40.289Z,58.23
2018-03-28T14:50:23.435Z,64.90
2018-03-28T14:52:07.344Z,56.27
2018-03-28T14:53:50.448Z,58.93
2018-03-28T14:55:33.683Z,60.50
2018-03-28T14:57:18.008Z,57.57
2018-03-28T14:59:01.131Z,55.63
2018-03-28T15:00:44.284Z,54.83
2018-03-28T15:02:28.190Z,55.30
2018-03-28T15:04:11.451Z,55.40
2018-03-28T15:05:54.598Z,51.63
2018-03-28T15:07:37.744Z,64.00
2018-03-28T15:09:20.876Z,50.43
2018-03-28T15:11:04.793Z,60.30
2018-03-28T15:12:47.929Z,64.97
2018-03-28T15:14:31.164Z,61.30
2018-03-28T15:16:14.354Z,62.80
2018-03-28T15:17:57.480Z,49.07
2018-03-28T15:19:41.360Z,43.40
2018-03-28T15:21:24.605Z,50.47
2018-03-28T15:23:07.758Z,54.03
2018-03-28T15:24:51.637Z,58.57
2018-03-28T15:26:35.625Z,57.80
2018-03-28T15:28:19.526Z,56.40
2018-03-28T15:30:02.762Z,53.80
2018-03-28T15:31:46.180Z,59.00
2018-03-28T15:33:29.330Z,58.00
2018-03-28T15:35:13.245Z,53.00
2018-03-28T15:36:56.414Z,58.77
2018-03-28T15:38:39.584Z,65.40
2018-03-28T15:40:22.710Z,61.13
2018-03-28T15:42:06.657Z,63.60
2018-03-28T15:43:49.829Z,58.57
2018-03-28T15:45:32.948Z,53.13
2018-03-28T15:47:16.106Z,56.10
2018-03-28T15:48:59.214Z,58.50
2018-03-28T15:50:43.112Z,60.30
2018-03-28T15:52:26.273Z,57.93
2018-03-28T15:54:10.164Z,51.43
2018-03-28T15:55:53.281Z,63.63
2018-03-28T15:57:36.437Z,61.80
2018-03-28T15:59:20.324Z,62.83
2018-03-28T16:01:03.445Z,57.50
2018-03-28T16:02:46.576Z,55.20
2018-03-28T16:04:29.720Z,56.13
2018-03-28T16:06:13.615Z,59.37
2018-03-28T16:07:56.761Z,55.87
2018-03-28T16:09:40.692Z,66.17
2018-03-28T16:11:23.806Z,55.90
2018-03-28T16:13:06.981Z,59.03
2018-03-28T16:14:50.115Z,59.13
2018-03-28T16:16:33.269Z,71.87
2018-03-28T16:18:17.168Z,62.83
2018-03-28T16:20:00.304Z,61.17
2018-03-28T16:21:43.420Z,63.97
2018-03-28T16:23:26.577Z,69.67
2018-03-28T16:25:09.701Z,59.27
2018-03-28T16:26:52.845Z,61.33
2018-03-28T16:28:36.002Z,64.20
2018-03-28T16:30:19.889Z,66.13
2018-03-28T16:32:03.019Z,57.57
2018-03-28T16:33:46.161Z,60.23
2018-03-28T16:35:29.283Z,62.23
2018-03-28T16:37:13.183Z,67.67
2018-03-28T16:38:56.504Z,68.13
2018-03-28T16:40:39.623Z,60.30
2018-03-28T16:42:24.417Z,55.77
2018-03-28T16:44:08.980Z,70.53
2018-03-28T16:45:53.458Z,68.90
2018-03-28T16:47:37.936Z,65.80
2018-03-28T16:49:23.701Z,67.77
2018-03-28T16:51:08.173Z,76.00
2018-03-28T16:52:52.641Z,61.60
2018-03-28T16:54:37.195Z,64.07
2018-03-28T16:56:21.682Z,63.03
2018-03-28T16:58:06.189Z,77.60
2018-03-28T16:59:52.917Z,75.07
2018-03-28T17:01:37.715Z,72.13
2018-03-28T17:03:22.442Z,60.33
2018-03-28T17:05:07.550Z,72.23
2018-03-28T17:06:52.320Z,71.27
2018-03-28T17:08:37.100Z,68.70
2018-03-28T17:10:21.912Z,70.53
2018-03-28T17:12:06.689Z,67.30
2018-03-28T17:13:51.458Z,64.70
2018-03-28T17:15:36.260Z,73.70
2018-03-28T17:17:21.050Z,75.53
2018-03-28T17:19:05.827Z,73.83
2018-03-28T17:20:50.644Z,76.50
2018-03-28T17:22:35.428Z,74.33
2018-03-28T17:24:20.212Z,67.70
2018-03-28T17:26:05.016Z,69.73
2018-03-28T17:27:49.789Z,71.00
2018-03-28T17:29:34.561Z,68.70
2018-03-28T17:31:19.367Z,75.53
2018-03-28T17:33:04.129Z,73.00
2018-03-28T17:34:48.910Z,71.80
2018-03-28T17:36:33.716Z,72.00
2018-03-28T17:38:18.485Z,77.17
2018-03-28T17:40:03.272Z,74.53
2018-03-28T17:41:48.108Z,73.67
2018-03-28T17:43:32.874Z,74.10
2018-03-28T17:45:17.637Z,79.13
2018-03-28T17:47:02.432Z,74.60
2018-03-28T17:48:47.258Z,80.07
2018-03-28T17:50:32.036Z,69.87
2018-03-28T17:52:16.838Z,69.43
2018-03-28T17:54:01.633Z,73.27
2018-03-28T17:55:46.416Z,77.60
2018-03-28T17:57:31.206Z,74.77
2018-03-28T17:59:15.987Z,84.00
2018-03-28T18:01:00.751Z,75.00
2018-03-28T18:02:45.891Z,82.83
2018-03-28T18:04:30.706Z,69.80
2018-03-28T18:06:15.504Z,82.90
2018-03-28T18:08:00.486Z,75.83
2018-03-28T18:09:45.416Z,77.27
2018-03-28T18:11:30.207Z,80.40
2018-03-28T18:13:15.004Z,79.70
2018-03-28T18:14:59.777Z,76.00
2018-03-28T18:16:44.565Z,77.50
2018-03-28T18:18:29.385Z,71.13
2018-03-28T18:20:14.202Z,85.07
2018-03-28T18:21:58.971Z,85.13
2018-03-28T18:23:43.788Z,78.17
2018-03-28T18:25:28.562Z,84.57
2018-03-28T18:27:13.336Z,72.40
2018-03-28T18:28:58.132Z,82.23
2018-03-28T18:30:42.919Z,88.20
2018-03-28T18:32:27.698Z,85.47
2018-03-28T18:34:12.500Z,97.27
2018-03-28T18:35:57.273Z,77.77
2018-03-28T18:37:42.052Z,96.30
2018-03-28T18:39:26.857Z,81.00
2018-03-28T18:41:11.640Z,92.97
2018-03-28T18:42:56.422Z,91.03
2018-03-28T18:44:41.522Z,85.33
2018-03-28T18:46:26.307Z,91.57
2018-03-28T18:48:11.105Z,90.93
2018-03-28T18:49:55.890Z,84.87
2018-03-28T18:51:40.669Z,91.03
2018-03-28T18:53:25.467Z,94.53
2018-03-28T18:55:10.269Z,93.77
2018-03-28T18:56:55.045Z,82.20
2018-03-28T18:58:39.824Z,105.00
2018-03-28T19:00:24.609Z,93.27
2018-03-28T19:02:09.394Z,99.33
2018-03-28T19:03:54.228Z,111.93
2018-03-28T19:05:39.028Z,93.37
2018-03-28T19:07:23.821Z,93.73
2018-03-28T19:09:08.621Z,96.57
2018-03-28T19:10:53.413Z,98.37
2018-03-28T19:12:39.102Z,95.83
2018-03-28T19:14:23.999Z,94.40
2018-03-28T19:16:08.863Z,84.90
2018-03-28T19:17:53.635Z,95.23
2018-03-28T19:19:38.413Z,93.37
2018-03-28T19:21:23.195Z,106.67
2018-03-28T19:23:07.968Z,111.63
2018-03-28T19:24:53.053Z,110.33
2018-03-28T19:26:37.854Z,99.40
2018-03-28T19:28:22.725Z,94.63
2018-03-28T19:30:07.503Z,102.67
2018-03-28T19:31:52.311Z,97.37
2018-03-28T19:33:37.098Z,99.17
2018-03-28T19:35:21.896Z,100.53
2018-03-28T19:37:06.713Z,110.87
2018-03-28T19:38:51.511Z,109.67
2018-03-28T19:40:36.320Z,125.33
2018-03-28T19:42:21.105Z,107.27
2018-03-28T19:44:05.892Z,107.10
2018-03-28T19:45:50.690Z,115.50
2018-03-28T19:47:35.531Z,115.40
2018-03-28T19:49:20.303Z,116.07
2018-03-28T19:51:05.126Z,117.13
2018-03-28T19:52:49.917Z,120.83
2018-03-28T19:54:34.737Z,117.43
2018-03-28T19:56:19.546Z,114.50
2018-03-28T19:58:04.337Z,136.87
2018-03-28T19:59:49.129Z,124.60
2018-03-28T20:01:33.955Z,127.33
2018-03-28T20:03:18.766Z,152.60
2018-03-28T20:05:03.590Z,126.77
2018-03-28T20:06:48.388Z,139.13
2018-03-28T20:08:33.177Z,127.13
2018-03-28T20:10:17.959Z,140.37
2018-03-28T20:12:02.743Z,152.27
2018-03-28T20:13:47.546Z,126.80
2018-03-28T20:15:32.345Z,140.30
2018-03-28T20:17:17.134Z,164.47
2018-03-28T20:19:01.919Z,137.80
2018-03-28T20:20:46.703Z,170.50
2018-03-28T20:22:31.521Z,180.83
2018-03-28T20:24:16.315Z,173.60
2018-03-28T20:26:01.105Z,204.13
2018-03-28T20:27:45.900Z,170.50
2018-03-28T20:29:30.696Z,214.57
2018-03-28T20:31:15.485Z,211.23
2018-03-28T20:33:00.293Z,238.40
2018-03-28T20:34:45.096Z,249.20
2018-03-28T20:36:29.894Z,197.83
2018-03-28T20:38:14.700Z,201.73
2018-03-28T20:39:59.491Z,223.83
2018-03-28T20:41:44.276Z,246.70
2018-03-28T20:43:29.075Z,206.50
2018-03-28T20:45:13.853Z,233.67
2018-03-28T20:46:58.660Z,259.67
2018-03-28T20:48:43.450Z,207.27
2018-03-28T20:50:28.239Z,231.73
2018-03-28T20:52:13.053Z,309.47
2018-03-28T20:53:57.832Z,218.37
2018-03-28T20:55:42.610Z,279.67
2018-03-28T20:57:27.418Z,250.90
2018-03-28T20:59:12.196Z,230.73
2018-03-28T21:00:56.995Z,259.27
2018-03-28T21:02:41.816Z,263.97
2018-03-28T21:04:26.625Z,193.57
2018-03-28T21:06:11.412Z,213.57
2018-03-28T21:07:56.229Z,263.67
2018-03-28T21:09:41.027Z,266.60
2018-03-28T21:11:25.831Z,256.53
2018-03-28T21:13:10.651Z,239.17
2018-03-28T21:14:55.444Z,267.07
2018-03-28T21:16:40.264Z,271.57
2018-03-28T21:18:25.067Z,256.40
2018-03-28T21:20:09.870Z,238.87
2018-03-28T21:21:54.672Z,302.40
2018-03-28T21:23:39.473Z,244.50
2018-03-28T21:25:24.298Z,282.93
2018-03-28T21:27:09.083Z,240.17
2018-03-28T21:28:53.901Z,275.23
2018-03-28T21:30:38.712Z,247.07
2018-03-28T21:32:23.537Z,204.20
2018-03-28T21:34:08.331Z,281.53
2018-03-28T21:35:53.123Z,256.10
2018-03-28T21:37:37.896Z,285.13
2018-03-28T21:39:22.693Z,266.50
2018-03-28T21:41:07.530Z,259.90
2018-03-28T21:42:52.325Z,300.37
2018-03-28T21:44:37.120Z,267.77
2018-03-28T21:46:21.927Z,232.50
2018-03-28T21:48:06.698Z,230.47
2018-03-28T21:49:51.496Z,232.60
2018-03-28T21:51:36.286Z,234.90
2018-03-28T21:53:21.109Z,221.47
2018-03-28T21:55:05.902Z,235.17
2018-03-28T21:56:50.683Z,212.17
2018-03-28T21:58:35.481Z,209.83
2018-03-28T22:00:20.277Z,199.30